This is the latest recevied weather packets stored in our database for station/object N3FU-13. If no packets are shown the sender has not sent any weather packets the latest 10 day(s).
| Time | Temp. | Humidity | Pressure | Rain* | Wind** | Luminosity | Snow |
|---|---|---|---|---|---|---|---|
| 1777846328 | 28.89° C | 56% | 1014.6 hPa | 0 mm | - | - | - |
| 1777845428 | 29.44° C | 55% | 1014.8 hPa | 0 mm | - | - | - |
| 1777844528 | 30° C | 52% | 1014.6 hPa | 0 mm | - | - | - |
| 1777843628 | 30° C | 53% | 1014.8 hPa | 0 mm | - | - | - |
| 1777842728 | 30° C | 52% | 1014.8 hPa | 0 mm | - | - | - |
| 1777841828 | 30.56° C | 51% | 1014.8 hPa | 0 mm | - | - | - |
| 1777841531 | 30.56° C | 51% | 1014.9 hPa | 0 mm | - | - | - |
| 1777840928 | 30.56° C | 51% | 1014.9 hPa | 0 mm | - | - | - |
| 1777840028 | 31.11° C | 50% | 1015.2 hPa | 0 mm | - | - | - |
| 1777839128 | 31.11° C | 51% | 1015.3 hPa | 0 mm | - | - | - |
| 1777838228 | 30.56° C | 51% | 1015.6 hPa | 0 mm | - | - | - |
| 1777838146 | 30.56° C | 53% | 1015.9 hPa | 0 mm | - | - | - |
| 1777837328 | 30.56° C | 54% | 1015.7 hPa | 0 mm | - | - | - |
| 1777836429 | 30.56° C | 53% | 1015.9 hPa | 0 mm | - | - | - |
| 1777835529 | 30° C | 53% | 1016.2 hPa | 0 mm | - | - | - |
| 1777835126 | 29.44° C | 55% | 1016.6 hPa | 0 mm | - | - | - |
| 1777834629 | 29.44° C | 55% | 1016.6 hPa | 0 mm | - | - | - |
| 1777833729 | 28.89° C | 59% | 1016.8 hPa | 0 mm | - | - | - |
| 1777832829 | 28.33° C | 60% | 1017 hPa | 0 mm | - | - | - |
| 1777831929 | 28.33° C | 61% | 1017.1 hPa | 0 mm | - | - | - |
| 1777831029 | 28.33° C | 60% | 1017.3 hPa | 0 mm | - | - | - |
| 1777830129 | 28.33° C | 60% | 1017.4 hPa | 0 mm | - | - | - |
| 1777829386 | 28.33° C | 61% | 1017.5 hPa | 0 mm | - | - | - |
| 1777829229 | 28.33° C | 61% | 1017.5 hPa | 0 mm | - | - | - |
| 1777828510 | 27.78° C | 61% | 1017.7 hPa | 0 mm | - | - | - |
* Rain latest hour (hover to see other rain measurements)
** Current wind speed in m/s (hover to see current wind gust speed)